Terminal Aerodrome Forecast
Issued by NWS

Home | Current Version | Previous Version | Text Only | Print | Product List | Glossary On
Versions: 1 2 3 4 5 6 7 8 9 10 11 12 13 14 15
000
FTUS43 KAPX 061130
TAFMBL
TAF
KMBL 061130Z 0612/0712 VRB03KT P6SM BKN250
     FM061400 21010KT P6SM BKN250
     FM070000 19006KT P6SM OVC150 WS020/20034KT
     FM070200 19004KT 4SM SHRA OVC024 WS020/21032KT
     FM070500 18005KT 5SM -SHRA BR OVC009
     FM070900 33006KT 6SM BR OVC008
      AMD LTD TO CLD VIS AND WIND=

USA.gov is the U.S. government's official web portal to all federal, state and local government web resources and services.